sensor_id;sensor_type;location;lat;lon;timestamp;P1;durP1;ratioP1;P2;durP2;ratioP2
5702;SDS011;2876;51.738;10.050;2023-01-29T00:01:05;14.67;;;9.10;;
5702;SDS011;2876;51.738;10.050;2023-01-29T00:07:08;13.37;;;8.60;;
5702;SDS011;2876;51.738;10.050;2023-01-29T00:13:10;17.10;;;9.67;;
5702;SDS011;2876;51.738;10.050;2023-01-29T00:19:11;12.90;;;9.17;;
5702;SDS011;2876;51.738;10.050;2023-01-29T00:25:13;24.63;;;9.87;;
5702;SDS011;2876;51.738;10.050;2023-01-29T00:31:17;16.10;;;10.50;;
5702;SDS011;2876;51.738;10.050;2023-01-29T00:37:22;14.43;;;9.73;;
5702;SDS011;2876;51.738;10.050;2023-01-29T00:43:24;19.53;;;9.47;;
5702;SDS011;2876;51.738;10.050;2023-01-29T00:49:45;15.70;;;9.37;;
5702;SDS011;2876;51.738;10.050;2023-01-29T00:55:47;12.07;;;8.70;;
5702;SDS011;2876;51.738;10.050;2023-01-29T01:01:49;14.77;;;9.33;;
5702;SDS011;2876;51.738;10.050;2023-01-29T01:08:09;16.47;;;9.83;;
5702;SDS011;2876;51.738;10.050;2023-01-29T01:14:30;13.33;;;9.17;;
5702;SDS011;2876;51.738;10.050;2023-01-29T01:20:35;16.27;;;9.57;;
5702;SDS011;2876;51.738;10.050;2023-01-29T01:26:37;16.23;;;9.57;;
5702;SDS011;2876;51.738;10.050;2023-01-29T01:32:39;13.43;;;10.40;;
5702;SDS011;2876;51.738;10.050;2023-01-29T01:38:42;17.17;;;11.17;;
5702;SDS011;2876;51.738;10.050;2023-01-29T01:44:54;15.30;;;10.00;;
5702;SDS011;2876;51.738;10.050;2023-01-29T01:51:08;17.40;;;10.93;;
5702;SDS011;2876;51.738;10.050;2023-01-29T01:57:11;20.07;;;11.40;;
5702;SDS011;2876;51.738;10.050;2023-01-29T02:03:24;19.07;;;11.73;;
5702;SDS011;2876;51.738;10.050;2023-01-29T02:16:01;17.10;;;11.07;;
5702;SDS011;2876;51.738;10.050;2023-01-29T02:28:44;18.97;;;12.00;;
5702;SDS011;2876;51.738;10.050;2023-01-29T02:41:31;18.50;;;11.47;;
5702;SDS011;2876;51.738;10.050;2023-01-29T02:48:06;19.17;;;11.53;;
5702;SDS011;2876;51.738;10.050;2023-01-29T02:54:20;17.83;;;10.30;;
5702;SDS011;2876;51.738;10.050;2023-01-29T03:00:42;21.20;;;11.57;;
5702;SDS011;2876;51.738;10.050;2023-01-29T03:06:51;21.33;;;11.37;;
5702;SDS011;2876;51.738;10.050;2023-01-29T03:13:05;19.33;;;11.70;;
5702;SDS011;2876;51.738;10.050;2023-01-29T03:25:28;20.73;;;12.63;;
5702;SDS011;2876;51.738;10.050;2023-01-29T03:31:50;21.70;;;11.67;;
5702;SDS011;2876;51.738;10.050;2023-01-29T03:38:05;21.83;;;13.17;;
5702;SDS011;2876;51.738;10.050;2023-01-29T03:57:01;25.17;;;14.30;;
5702;SDS011;2876;51.738;10.050;2023-01-29T04:03:33;27.90;;;15.40;;
5702;SDS011;2876;51.738;10.050;2023-01-29T04:09:46;25.10;;;15.23;;
5702;SDS011;2876;51.738;10.050;2023-01-29T04:15:57;27.23;;;16.90;;
5702;SDS011;2876;51.738;10.050;2023-01-29T04:22:16;24.57;;;16.07;;
5702;SDS011;2876;51.738;10.050;2023-01-29T04:28:27;28.20;;;17.27;;
5702;SDS011;2876;51.738;10.050;2023-01-29T04:35:02;30.87;;;16.37;;
5702;SDS011;2876;51.738;10.050;2023-01-29T04:42:07;30.47;;;16.47;;
5702;SDS011;2876;51.738;10.050;2023-01-29T04:48:25;25.40;;;15.67;;
5702;SDS011;2876;51.738;10.050;2023-01-29T05:01:21;28.90;;;17.03;;
5702;SDS011;2876;51.738;10.050;2023-01-29T05:07:26;26.27;;;16.20;;
5702;SDS011;2876;51.738;10.050;2023-01-29T05:13:31;29.90;;;16.20;;
5702;SDS011;2876;51.738;10.050;2023-01-29T05:19:39;28.67;;;17.30;;
5702;SDS011;2876;51.738;10.050;2023-01-29T05:25:41;25.40;;;15.93;;
5702;SDS011;2876;51.738;10.050;2023-01-29T05:31:44;23.40;;;14.77;;
5702;SDS011;2876;51.738;10.050;2023-01-29T05:37:46;23.73;;;15.07;;
5702;SDS011;2876;51.738;10.050;2023-01-29T05:43:48;23.33;;;15.97;;
5702;SDS011;2876;51.738;10.050;2023-01-29T05:49:50;27.00;;;15.03;;
5702;SDS011;2876;51.738;10.050;2023-01-29T05:55:52;23.43;;;13.50;;
5702;SDS011;2876;51.738;10.050;2023-01-29T06:01:54;25.53;;;14.23;;
5702;SDS011;2876;51.738;10.050;2023-01-29T06:07:56;22.63;;;14.40;;
5702;SDS011;2876;51.738;10.050;2023-01-29T06:13:58;27.67;;;15.50;;
5702;SDS011;2876;51.738;10.050;2023-01-29T06:20:00;25.33;;;15.57;;
5702;SDS011;2876;51.738;10.050;2023-01-29T06:26:06;25.57;;;14.20;;
5702;SDS011;2876;51.738;10.050;2023-01-29T06:32:14;26.17;;;15.67;;
5702;SDS011;2876;51.738;10.050;2023-01-29T06:38:16;27.73;;;16.53;;
5702;SDS011;2876;51.738;10.050;2023-01-29T06:44:17;23.30;;;15.47;;
5702;SDS011;2876;51.738;10.050;2023-01-29T06:50:19;26.47;;;14.73;;
5702;SDS011;2876;51.738;10.050;2023-01-29T06:56:22;25.37;;;14.77;;
5702;SDS011;2876;51.738;10.050;2023-01-29T07:02:24;25.37;;;14.87;;
5702;SDS011;2876;51.738;10.050;2023-01-29T07:08:26;30.03;;;15.23;;
5702;SDS011;2876;51.738;10.050;2023-01-29T07:14:28;25.03;;;14.67;;
5702;SDS011;2876;51.738;10.050;2023-01-29T07:20:30;22.20;;;14.07;;
5702;SDS011;2876;51.738;10.050;2023-01-29T07:26:32;23.57;;;12.70;;
5702;SDS011;2876;51.738;10.050;2023-01-29T07:32:34;23.93;;;13.83;;
5702;SDS011;2876;51.738;10.050;2023-01-29T07:38:36;28.77;;;14.40;;
5702;SDS011;2876;51.738;10.050;2023-01-29T07:44:38;22.17;;;13.33;;
5702;SDS011;2876;51.738;10.050;2023-01-29T07:50:40;23.47;;;13.33;;
5702;SDS011;2876;51.738;10.050;2023-01-29T07:56:42;25.03;;;13.93;;
5702;SDS011;2876;51.738;10.050;2023-01-29T08:02:44;23.37;;;14.47;;
5702;SDS011;2876;51.738;10.050;2023-01-29T08:08:46;21.63;;;12.60;;
5702;SDS011;2876;51.738;10.050;2023-01-29T08:14:48;23.17;;;13.97;;
5702;SDS011;2876;51.738;10.050;2023-01-29T08:20:50;29.63;;;13.83;;
5702;SDS011;2876;51.738;10.050;2023-01-29T08:26:53;21.43;;;13.57;;
5702;SDS011;2876;51.738;10.050;2023-01-29T08:32:55;20.93;;;12.93;;
5702;SDS011;2876;51.738;10.050;2023-01-29T08:38:57;22.97;;;14.00;;
5702;SDS011;2876;51.738;10.050;2023-01-29T08:44:59;18.67;;;12.10;;
5702;SDS011;2876;51.738;10.050;2023-01-29T08:51:01;21.73;;;13.00;;
5702;SDS011;2876;51.738;10.050;2023-01-29T08:57:04;25.20;;;13.57;;
5702;SDS011;2876;51.738;10.050;2023-01-29T09:03:06;22.37;;;13.53;;
5702;SDS011;2876;51.738;10.050;2023-01-29T09:09:08;19.73;;;12.80;;
5702;SDS011;2876;51.738;10.050;2023-01-29T09:15:11;21.97;;;13.40;;
5702;SDS011;2876;51.738;10.050;2023-01-29T09:21:12;28.13;;;13.93;;
5702;SDS011;2876;51.738;10.050;2023-01-29T09:27:14;22.43;;;13.07;;
5702;SDS011;2876;51.738;10.050;2023-01-29T09:33:16;23.30;;;14.50;;
5702;SDS011;2876;51.738;10.050;2023-01-29T09:39:18;26.87;;;15.33;;
5702;SDS011;2876;51.738;10.050;2023-01-29T09:45:22;27.40;;;15.70;;
5702;SDS011;2876;51.738;10.050;2023-01-29T09:51:28;21.53;;;14.20;;
5702;SDS011;2876;51.738;10.050;2023-01-29T09:57:47;23.53;;;14.87;;
5702;SDS011;2876;51.738;10.050;2023-01-29T10:10:48;18.47;;;12.77;;
5702;SDS011;2876;51.738;10.050;2023-01-29T10:23:37;15.37;;;10.60;;
5702;SDS011;2876;51.738;10.050;2023-01-29T10:29:48;16.43;;;11.47;;
5702;SDS011;2876;51.738;10.050;2023-01-29T10:35:54;18.60;;;10.97;;
5702;SDS011;2876;51.738;10.050;2023-01-29T10:42:04;19.80;;;11.93;;
5702;SDS011;2876;51.738;10.050;2023-01-29T11:01:12;15.17;;;10.40;;
5702;SDS011;2876;51.738;10.050;2023-01-29T11:07:15;23.90;;;11.73;;
5702;SDS011;2876;51.738;10.050;2023-01-29T11:13:19;17.03;;;10.60;;
5702;SDS011;2876;51.738;10.050;2023-01-29T11:19:40;15.47;;;8.70;;
5702;SDS011;2876;51.738;10.050;2023-01-29T11:25:50;16.40;;;9.30;;
5702;SDS011;2876;51.738;10.050;2023-01-29T11:31:54;18.07;;;10.83;;
5702;SDS011;2876;51.738;10.050;2023-01-29T11:38:06;14.40;;;9.60;;
5702;SDS011;2876;51.738;10.050;2023-01-29T11:44:19;18.57;;;10.47;;
5702;SDS011;2876;51.738;10.050;2023-01-29T11:50:37;12.40;;;9.10;;
5702;SDS011;2876;51.738;10.050;2023-01-29T11:56:42;14.30;;;9.50;;
5702;SDS011;2876;51.738;10.050;2023-01-29T12:09:28;18.20;;;8.47;;
5702;SDS011;2876;51.738;10.050;2023-01-29T12:15:33;13.33;;;9.00;;
5702;SDS011;2876;51.738;10.050;2023-01-29T12:21:45;12.60;;;9.07;;
5702;SDS011;2876;51.738;10.050;2023-01-29T12:28:03;12.80;;;9.30;;
5702;SDS011;2876;51.738;10.050;2023-01-29T12:34:28;14.50;;;9.43;;
5702;SDS011;2876;51.738;10.050;2023-01-29T12:47:25;15.77;;;8.90;;
5702;SDS011;2876;51.738;10.050;2023-01-29T12:53:47;13.00;;;9.17;;
5702;SDS011;2876;51.738;10.050;2023-01-29T13:00:09;15.03;;;9.33;;
5702;SDS011;2876;51.738;10.050;2023-01-29T13:06:22;14.20;;;9.40;;
5702;SDS011;2876;51.738;10.050;2023-01-29T13:12:34;10.80;;;8.00;;
5702;SDS011;2876;51.738;10.050;2023-01-29T13:18:46;14.23;;;9.30;;
5702;SDS011;2876;51.738;10.050;2023-01-29T13:25:17;14.90;;;10.33;;
5702;SDS011;2876;51.738;10.050;2023-01-29T13:31:36;12.20;;;8.37;;
5702;SDS011;2876;51.738;10.050;2023-01-29T13:37:41;14.30;;;8.03;;
5702;SDS011;2876;51.738;10.050;2023-01-29T13:43:53;10.37;;;7.47;;
5702;SDS011;2876;51.738;10.050;2023-01-29T13:49:58;12.83;;;7.40;;
5702;SDS011;2876;51.738;10.050;2023-01-29T14:02:31;10.70;;;6.73;;
5702;SDS011;2876;51.738;10.050;2023-01-29T14:20:50;9.13;;;6.77;;
5702;SDS011;2876;51.738;10.050;2023-01-29T14:26:59;16.47;;;8.23;;
5702;SDS011;2876;51.738;10.050;2023-01-29T14:33:03;10.80;;;7.77;;
5702;SDS011;2876;51.738;10.050;2023-01-29T14:39:37;10.60;;;7.83;;
5702;SDS011;2876;51.738;10.050;2023-01-29T14:45:45;8.87;;;7.20;;
5702;SDS011;2876;51.738;10.050;2023-01-29T14:51:49;11.80;;;7.40;;
5702;SDS011;2876;51.738;10.050;2023-01-29T14:57:51;10.73;;;7.10;;
5702;SDS011;2876;51.738;10.050;2023-01-29T15:04:02;11.93;;;7.70;;
5702;SDS011;2876;51.738;10.050;2023-01-29T15:29:34;14.13;;;8.10;;
5702;SDS011;2876;51.738;10.050;2023-01-29T15:35:36;10.37;;;7.37;;
5702;SDS011;2876;51.738;10.050;2023-01-29T15:41:42;15.20;;;8.20;;
5702;SDS011;2876;51.738;10.050;2023-01-29T15:47:44;12.10;;;7.70;;
5702;SDS011;2876;51.738;10.050;2023-01-29T15:53:50;12.27;;;8.67;;
5702;SDS011;2876;51.738;10.050;2023-01-29T15:59:59;12.70;;;8.77;;
5702;SDS011;2876;51.738;10.050;2023-01-29T16:06:02;13.33;;;8.53;;
5702;SDS011;2876;51.738;10.050;2023-01-29T16:12:08;13.97;;;9.00;;
5702;SDS011;2876;51.738;10.050;2023-01-29T16:18:18;11.37;;;7.97;;
5702;SDS011;2876;51.738;10.050;2023-01-29T16:24:24;12.67;;;7.87;;
5702;SDS011;2876;51.738;10.050;2023-01-29T16:30:27;15.87;;;9.63;;
5702;SDS011;2876;51.738;10.050;2023-01-29T16:36:29;14.70;;;8.93;;
5702;SDS011;2876;51.738;10.050;2023-01-29T16:42:32;12.33;;;7.43;;
5702;SDS011;2876;51.738;10.050;2023-01-29T16:48:36;12.60;;;8.63;;
5702;SDS011;2876;51.738;10.050;2023-01-29T16:54:39;15.20;;;9.70;;
5702;SDS011;2876;51.738;10.050;2023-01-29T17:01:25;17.77;;;9.70;;
5702;SDS011;2876;51.738;10.050;2023-01-29T17:07:13;13.03;;;9.37;;
5702;SDS011;2876;51.738;10.050;2023-01-29T17:13:29;12.47;;;9.10;;
5702;SDS011;2876;51.738;10.050;2023-01-29T17:19:44;14.20;;;9.33;;
5702;SDS011;2876;51.738;10.050;2023-01-29T17:25:46;20.00;;;9.30;;
5702;SDS011;2876;51.738;10.050;2023-01-29T17:31:49;13.97;;;9.83;;
5702;SDS011;2876;51.738;10.050;2023-01-29T17:37:51;15.57;;;10.13;;
5702;SDS011;2876;51.738;10.050;2023-01-29T17:43:52;13.77;;;8.77;;
5702;SDS011;2876;51.738;10.050;2023-01-29T17:49:54;20.73;;;8.97;;
5702;SDS011;2876;51.738;10.050;2023-01-29T17:55:57;14.50;;;10.03;;
5702;SDS011;2876;51.738;10.050;2023-01-29T18:01:59;13.47;;;10.03;;
5702;SDS011;2876;51.738;10.050;2023-01-29T18:08:01;17.80;;;10.43;;
5702;SDS011;2876;51.738;10.050;2023-01-29T18:14:04;27.33;;;15.93;;
5702;SDS011;2876;51.738;10.050;2023-01-29T18:20:19;21.17;;;12.63;;
5702;SDS011;2876;51.738;10.050;2023-01-29T18:26:25;22.33;;;13.20;;
5702;SDS011;2876;51.738;10.050;2023-01-29T18:32:27;24.17;;;14.43;;
5702;SDS011;2876;51.738;10.050;2023-01-29T18:38:29;29.53;;;14.50;;
5702;SDS011;2876;51.738;10.050;2023-01-29T18:44:33;27.40;;;16.53;;
5702;SDS011;2876;51.738;10.050;2023-01-29T18:50:35;25.50;;;15.70;;
5702;SDS011;2876;51.738;10.050;2023-01-29T18:56:37;27.90;;;15.20;;
5702;SDS011;2876;51.738;10.050;2023-01-29T19:02:59;29.13;;;14.97;;
5702;SDS011;2876;51.738;10.050;2023-01-29T19:09:01;26.23;;;15.57;;
5702;SDS011;2876;51.738;10.050;2023-01-29T19:15:03;33.30;;;17.27;;
5702;SDS011;2876;51.738;10.050;2023-01-29T19:21:10;30.37;;;17.03;;
5702;SDS011;2876;51.738;10.050;2023-01-29T19:27:14;24.50;;;14.73;;
5702;SDS011;2876;51.738;10.050;2023-01-29T19:33:15;34.47;;;18.33;;
5702;SDS011;2876;51.738;10.050;2023-01-29T19:39:17;29.00;;;16.73;;
5702;SDS011;2876;51.738;10.050;2023-01-29T19:45:19;28.83;;;16.70;;
5702;SDS011;2876;51.738;10.050;2023-01-29T19:51:45;23.23;;;15.07;;
5702;SDS011;2876;51.738;10.050;2023-01-29T19:57:50;28.47;;;14.73;;
5702;SDS011;2876;51.738;10.050;2023-01-29T20:03:53;27.00;;;15.80;;
5702;SDS011;2876;51.738;10.050;2023-01-29T20:09:56;25.47;;;14.27;;
5702;SDS011;2876;51.738;10.050;2023-01-29T20:15:57;30.33;;;16.67;;
5702;SDS011;2876;51.738;10.050;2023-01-29T20:22:03;26.80;;;15.80;;
5702;SDS011;2876;51.738;10.050;2023-01-29T20:28:06;23.67;;;13.53;;
5702;SDS011;2876;51.738;10.050;2023-01-29T20:34:12;24.13;;;14.33;;
5702;SDS011;2876;51.738;10.050;2023-01-29T20:40:14;25.43;;;14.20;;
5702;SDS011;2876;51.738;10.050;2023-01-29T20:46:16;28.73;;;15.67;;
5702;SDS011;2876;51.738;10.050;2023-01-29T20:52:18;20.97;;;13.03;;
5702;SDS011;2876;51.738;10.050;2023-01-29T20:58:21;25.70;;;14.40;;
5702;SDS011;2876;51.738;10.050;2023-01-29T21:04:23;19.87;;;12.33;;
5702;SDS011;2876;51.738;10.050;2023-01-29T21:10:25;17.07;;;11.77;;
5702;SDS011;2876;51.738;10.050;2023-01-29T21:16:26;21.60;;;11.67;;
5702;SDS011;2876;51.738;10.050;2023-01-29T21:22:29;20.10;;;12.40;;
5702;SDS011;2876;51.738;10.050;2023-01-29T21:28:32;21.27;;;12.00;;
5702;SDS011;2876;51.738;10.050;2023-01-29T21:34:34;22.87;;;14.50;;
5702;SDS011;2876;51.738;10.050;2023-01-29T21:40:36;21.33;;;12.13;;
5702;SDS011;2876;51.738;10.050;2023-01-29T21:46:38;23.93;;;12.03;;
5702;SDS011;2876;51.738;10.050;2023-01-29T21:52:40;21.03;;;11.80;;
5702;SDS011;2876;51.738;10.050;2023-01-29T21:58:42;22.43;;;13.70;;
5702;SDS011;2876;51.738;10.050;2023-01-29T22:04:46;24.33;;;12.63;;
5702;SDS011;2876;51.738;10.050;2023-01-29T22:10:48;17.70;;;11.37;;
5702;SDS011;2876;51.738;10.050;2023-01-29T22:16:50;24.93;;;12.10;;
5702;SDS011;2876;51.738;10.050;2023-01-29T22:22:52;24.20;;;13.27;;
5702;SDS011;2876;51.738;10.050;2023-01-29T22:28:54;21.27;;;11.60;;
5702;SDS011;2876;51.738;10.050;2023-01-29T22:34:57;20.23;;;12.97;;
5702;SDS011;2876;51.738;10.050;2023-01-29T22:40:59;23.07;;;13.23;;
5702;SDS011;2876;51.738;10.050;2023-01-29T22:47:01;24.20;;;15.37;;
5702;SDS011;2876;51.738;10.050;2023-01-29T22:53:03;21.77;;;13.40;;
5702;SDS011;2876;51.738;10.050;2023-01-29T22:59:06;16.60;;;11.10;;
5702;SDS011;2876;51.738;10.050;2023-01-29T23:05:09;20.37;;;12.40;;
5702;SDS011;2876;51.738;10.050;2023-01-29T23:11:13;19.57;;;12.10;;
5702;SDS011;2876;51.738;10.050;2023-01-29T23:17:18;21.67;;;11.40;;
5702;SDS011;2876;51.738;10.050;2023-01-29T23:23:20;23.23;;;12.67;;
5702;SDS011;2876;51.738;10.050;2023-01-29T23:29:22;26.50;;;14.87;;
5702;SDS011;2876;51.738;10.050;2023-01-29T23:35:24;22.20;;;12.40;;
5702;SDS011;2876;51.738;10.050;2023-01-29T23:41:26;17.50;;;10.77;;
5702;SDS011;2876;51.738;10.050;2023-01-29T23:47:28;21.53;;;12.97;;
5702;SDS011;2876;51.738;10.050;2023-01-29T23:53:31;25.70;;;12.90;;
5702;SDS011;2876;51.738;10.050;2023-01-29T23:59:33;25.73;;;13.90;;
